DRRN/NIM METAR and TAF weather

Enter ICAO airport designator
Station Type Date Time Source
DRRN METAR 2021/04/18 01:00 UTC NOAA

DRRN 180100Z 20008KT CAVOK 33/11 Q1008 NOSIG


Station Type Date Time Source
DRRN Decoded METAR 2021/04/18 01:00 UTC NOAA

Niamey-Aero, Niger (DRRN) 13-29N 002-10E 227M
Apr 17, 2021 - 09:00 PM EDT / 2021.04.18 0100 UTC
Wind: from the SSW (200 degrees) at 9 MPH (8 KT):0
Visibility: greater than 7 mile(s):0
Temperature: 91 F (33 C)
Dew Point: 51 F (11 C)
Relative Humidity: 26%
Pressure (altimeter): 29.77 in. Hg (1008 hPa)
ob: DRRN 180100Z 20008KT CAVOK 33/11 Q1008 NOSIG
cycle: 1

Station Type Date Time Source
DRRN TAF 2021/04/17 18:21 UTC NOAA

TAF DRRN 171700Z 1718/1824 22005KT 9999 FEW030 PROB40 1718/1720 24020KT 2000 BLDU TS SCT020 FEW030CB PROB30 1816/1820 VRB20KT 2000 BLDU -TSRA SCT020 FEW030CB

Example: see airport list